Time;durP1;ratioP1;P1;durP2;ratioP2;P2;SDS_P1;SDS_P2;PMS_P1;PMS_P2;Temp;Humidity;BMP_temperature;BMP_pressure;BME280_temperature;BME280_humidity;BME280_pressure;Samples;Min_cycle;Max_cycle;Signal;HPM_P1;HPM_P2
2021/12/26 00:02:12;;;;;;;33.30;16.03;;;;;;;3.08;100.00;97632.28;5051543;28;20224;-57
2021/12/26 00:04:41;;;;;;;72.77;17.93;;;;;;;3.05;100.00;97632.53;5051487;28;20232;-57
2021/12/26 00:07:08;;;;;;;165.73;18.90;;;;;;;3.01;100.00;97628.56;5051304;28;20199;-55
2021/12/26 00:09:34;;;;;;;65.60;16.57;;;;;;;3.01;100.00;97631.16;5050867;28;20211;-55
2021/12/26 00:12:01;;;;;;;96.87;17.50;;;;;;;3.01;100.00;97628.56;5051502;28;20222;-56
2021/12/26 00:14:28;;;;;;;37.40;17.57;;;;;;;2.99;100.00;97620.97;5052743;28;20194;-56
2021/12/26 00:16:55;;;;;;;42.27;16.23;;;;;;;3.02;100.00;97622.47;5055164;28;20188;-55
2021/12/26 00:19:22;;;;;;;80.10;16.10;;;;;;;3.05;100.00;97620.47;5055140;28;20696;-55
2021/12/26 00:21:50;;;;;;;38.37;16.47;;;;;;;3.04;100.00;97616.25;5054275;28;20297;-55
2021/12/26 00:24:17;;;;;;;44.50;16.50;;;;;;;3.12;100.00;97617.38;5054960;28;20717;-56
2021/12/26 00:26:44;;;;;;;46.03;16.90;;;;;;;3.15;100.00;97620.50;5054911;28;20209;-55
2021/12/26 00:29:10;;;;;;;32.47;16.40;;;;;;;3.20;100.00;97620.09;5054866;28;20199;-56
2021/12/26 00:31:37;;;;;;;34.47;16.73;;;;;;;3.18;100.00;97615.09;5054230;28;20207;-55
2021/12/26 00:34:05;;;;;;;114.07;18.30;;;;;;;3.15;100.00;97619.69;5054862;28;20210;-56
2021/12/26 00:36:32;;;;;;;64.13;18.20;;;;;;;3.12;100.00;97615.59;5054800;28;20585;-56
2021/12/26 00:39:00;;;;;;;42.57;17.17;;;;;;;3.07;100.00;97607.44;5053381;28;20377;-58
2021/12/26 00:41:27;;;;;;;145.50;18.90;;;;;;;3.03;100.00;97612.03;5054133;28;20302;-57
2021/12/26 00:43:54;;;;;;;36.30;16.33;;;;;;;3.02;100.00;97617.31;5053322;28;20620;-57
2021/12/26 00:46:21;;;;;;;27.17;15.50;;;;;;;3.09;100.00;97621.84;5053333;28;20217;-57
2021/12/26 00:48:48;;;;;;;81.60;17.43;;;;;;;3.05;100.00;97610.16;5053237;28;20290;-55
2021/12/26 00:51:15;;;;;;;77.43;17.37;;;;;;;3.01;100.00;97615.69;5053774;28;20804;-55
2021/12/26 00:53:42;;;;;;;35.40;15.73;;;;;;;2.91;100.00;97616.44;5054735;28;20514;-56
2021/12/26 00:56:10;;;;;;;79.20;18.30;;;;;;;2.92;100.00;97618.06;5054470;28;20278;-57
2021/12/26 00:58:37;;;;;;;39.23;16.30;;;;;;;2.93;100.00;97618.91;5054793;28;20596;-57
2021/12/26 01:01:04;;;;;;;69.87;17.60;;;;;;;2.94;100.00;97613.59;5052320;28;20311;-59
2021/12/26 01:03:31;;;;;;;51.57;16.43;;;;;;;2.97;100.00;97609.97;5053086;28;20187;-57
2021/12/26 01:05:59;;;;;;;38.63;16.13;;;;;;;2.97;100.00;97606.56;5052844;28;20213;-55
2021/12/26 01:08:30;;;;;;;46.97;16.57;;;;;;;3.00;100.00;97608.88;5053206;28;20198;-55
2021/12/26 01:11:01;;;;;;;38.47;16.70;;;;;;;2.98;100.00;97603.88;5052186;28;20679;-57
2021/12/26 01:13:37;;;;;;;41.33;15.63;;;;;;;2.99;100.00;97599.53;5052896;28;20191;-57
2021/12/26 01:16:13;;;;;;;28.03;15.77;;;;;;;2.98;100.00;97608.19;5052771;28;20282;-56
2021/12/26 01:18:43;;;;;;;136.53;18.83;;;;;;;2.98;100.00;97610.78;5052669;28;20555;-56
2021/12/26 01:21:17;;;;;;;39.03;17.17;;;;;;;2.95;100.00;97617.81;5053151;28;20646;-56
2021/12/26 01:23:51;;;;;;;99.20;16.80;;;;;;;2.96;100.00;97616.06;5052579;28;20195;-56
2021/12/26 01:26:20;;;;;;;79.57;16.97;;;;;;;2.89;100.00;97614.94;5051514;28;20191;-55
2021/12/26 01:28:48;;;;;;;57.77;16.00;;;;;;;2.88;100.00;97616.69;5052415;28;20233;-55
2021/12/26 01:31:19;;;;;;;34.80;15.77;;;;;;;2.95;100.00;97619.59;5051743;28;20211;-56
2021/12/26 01:33:52;;;;;;;46.57;16.70;;;;;;;2.98;100.00;97616.75;5052520;28;20199;-56
2021/12/26 01:36:34;;;;;;;31.07;15.77;;;;;;;2.88;100.00;97624.44;5052286;28;20211;-56
2021/12/26 01:39:30;;;;;;;27.87;15.20;;;;;;;2.90;100.00;97622.53;5048610;28;20191;-55
2021/12/26 01:42:10;;;;;;;42.83;14.83;;;;;;;2.93;100.00;97621.47;5052078;28;20696;-56
2021/12/26 01:45:06;;;;;;;24.63;13.90;;;;;;;2.92;100.00;97615.50;5052320;28;20192;-56
2021/12/26 01:47:45;;;;;;;57.33;16.60;;;;;;;2.80;100.00;97619.09;5052113;28;20187;-56
2021/12/26 01:50:12;;;;;;;23.67;14.43;;;;;;;2.82;100.00;97616.41;5051621;28;20608;-56
2021/12/26 01:52:40;;;;;;;81.50;16.50;;;;;;;2.78;100.00;97619.22;5052147;28;20190;-56
2021/12/26 01:55:22;;;;;;;36.47;15.30;;;;;;;2.81;100.00;97623.28;5052119;28;20269;-55
2021/12/26 01:57:51;;;;;;;91.53;16.37;;;;;;;2.85;100.00;97623.88;5052186;28;20195;-55
2021/12/26 02:00:20;;;;;;;50.03;15.27;;;;;;;2.83;100.00;97625.75;5051239;28;20233;-56
2021/12/26 02:02:48;;;;;;;113.10;17.30;;;;;;;2.83;100.00;97629.13;5053525;28;20703;-56
2021/12/26 02:05:15;;;;;;;59.20;16.17;;;;;;;2.79;100.00;97631.16;5051820;28;20284;-55
2021/12/26 02:07:42;;;;;;;63.93;16.00;;;;;;;2.81;100.00;97641.34;5051942;28;20668;-56
2021/12/26 02:10:09;;;;;;;70.10;15.77;;;;;;;2.83;100.00;97630.91;5050953;28;20187;-57
2021/12/26 02:12:36;;;;;;;118.60;17.10;;;;;;;2.86;100.00;97636.63;5051666;28;20187;-56
2021/12/26 02:15:04;;;;;;;85.03;16.27;;;;;;;2.77;100.00;97639.94;5051649;28;20195;-57
2021/12/26 02:17:42;;;;;;;79.80;16.47;;;;;;;2.76;100.00;97634.00;5051735;28;20194;-55
2021/12/26 02:20:26;;;;;;;103.83;16.67;;;;;;;2.75;100.00;97634.94;5050882;28;20249;-57
2021/12/26 02:22:59;;;;;;;56.17;16.87;;;;;;;2.74;100.00;97633.31;5051057;28;20653;-57
2021/12/26 02:27:31;;;;;;;31.33;15.27;;;;;;;2.78;100.00;97637.25;5051782;28;20249;-56
2021/12/26 02:28:20;;;;;;;40.77;15.40;;;;;;;2.84;100.00;97633.34;5052480;28;20191;-55
2021/12/26 02:30:49;;;;;;;50.27;15.93;;;;;;;2.88;100.00;97639.09;5050715;28;20212;-57
2021/12/26 02:33:18;;;;;;;90.60;16.37;;;;;;;2.86;100.00;97630.66;5052443;28;20195;-55
2021/12/26 02:35:48;;;;;;;83.67;15.77;;;;;;;2.84;100.00;97640.28;5051494;28;20771;-55
2021/12/26 02:38:16;;;;;;;153.93;17.80;;;;;;;2.80;100.00;97642.28;5050891;28;20564;-56
2021/12/26 02:40:46;;;;;;;76.70;15.03;;;;;;;2.79;100.00;97640.66;5051735;28;20204;-55
2021/12/26 02:43:16;;;;;;;78.10;16.13;;;;;;;2.80;100.00;97653.41;5051160;28;20542;-56
2021/12/26 02:45:43;;;;;;;198.67;18.03;;;;;;;2.77;100.00;97647.69;5051343;28;20187;-54
2021/12/26 02:48:11;;;;;;;95.70;15.90;;;;;;;2.71;100.00;97648.19;5052305;28;20191;-56
2021/12/26 02:50:39;;;;;;;218.30;19.67;;;;;;;2.57;100.00;97642.41;5050291;28;20209;-56
2021/12/26 02:53:11;;;;;;;77.53;16.20;;;;;;;2.61;100.00;97651.53;5050948;28;20191;-57
2021/12/26 02:55:38;;;;;;;41.90;15.77;;;;;;;2.61;100.00;97642.97;5052394;28;20196;-57
2021/12/26 02:58:08;;;;;;;231.83;20.63;;;;;;;2.60;100.00;97643.91;5052035;28;20242;-57
2021/12/26 03:00:38;;;;;;;130.53;17.83;;;;;;;2.56;100.00;97642.53;5050054;28;20297;-56
2021/12/26 03:03:06;;;;;;;78.70;16.30;;;;;;;2.61;100.00;97637.81;5051007;28;20241;-56
2021/12/26 03:05:36;;;;;;;85.67;16.17;;;;;;;2.58;100.00;97648.38;5050893;28;20198;-57
2021/12/26 03:08:03;;;;;;;111.70;16.37;;;;;;;2.58;100.00;97645.81;5050727;28;20187;-56
2021/12/26 03:10:32;;;;;;;116.80;16.93;;;;;;;2.59;100.00;97637.97;5049919;28;20229;-56
2021/12/26 03:13:03;;;;;;;46.47;14.77;;;;;;;2.55;100.00;97641.72;5050477;28;20649;-56
2021/12/26 03:15:32;;;;;;;161.40;18.07;;;;;;;2.54;100.00;97634.94;5050764;28;20187;-57
2021/12/26 03:18:01;;;;;;;78.63;16.40;;;;;;;2.55;100.00;97643.47;5050533;28;20283;-55
2021/12/26 03:20:31;;;;;;;104.83;17.00;;;;;;;2.53;100.00;97637.63;5049847;28;20199;-55
2021/12/26 03:22:59;;;;;;;100.43;17.33;;;;;;;2.47;100.00;97637.19;5050457;28;20265;-55
2021/12/26 03:25:26;;;;;;;40.80;15.00;;;;;;;2.54;100.00;97632.38;5050484;28;20197;-56
2021/12/26 03:27:55;;;;;;;33.60;14.67;;;;;;;2.60;100.00;97636.19;5050493;28;20677;-57
2021/12/26 03:30:26;;;;;;;37.40;15.03;;;;;;;2.65;100.00;97645.16;5049731;28;20728;-56
2021/12/26 03:32:56;;;;;;;27.87;14.70;;;;;;;2.70;100.00;97642.22;5050446;28;20665;-55
2021/12/26 03:35:25;;;;;;;85.77;15.90;;;;;;;2.72;100.00;97642.91;5050358;28;20191;-56
2021/12/26 03:37:53;;;;;;;37.83;14.37;;;;;;;2.70;100.00;97642.22;5050556;28;20278;-56
2021/12/26 03:40:41;;;;;;;55.17;14.70;;;;;;;2.71;100.00;97654.16;5039625;28;20227;-57
2021/12/26 03:43:10;;;;;;;29.77;13.80;;;;;;;2.75;100.00;97639.25;5051732;28;20199;-56
2021/12/26 03:45:38;;;;;;;96.27;16.57;;;;;;;2.74;100.00;97647.94;5050430;28;20192;-56
2021/12/26 03:48:06;;;;;;;31.07;14.80;;;;;;;2.75;100.00;97644.41;5051536;28;20187;-55
2021/12/26 03:50:34;;;;;;;29.97;13.23;;;;;;;2.73;100.00;97646.31;5052906;28;20207;-57
2021/12/26 03:53:02;;;;;;;35.63;13.50;;;;;;;2.76;100.00;97646.88;5054785;28;20191;-54
2021/12/26 03:55:30;;;;;;;19.47;12.07;;;;;;;2.76;100.00;97643.47;5054497;28;20275;-56
2021/12/26 03:57:57;;;;;;;22.50;12.00;;;;;;;2.80;100.00;97647.44;5054608;28;20599;-56
2021/12/26 04:00:27;;;;;;;21.60;11.97;;;;;;;2.76;100.00;97643.47;5053731;28;20770;-58
2021/12/26 04:02:55;;;;;;;19.87;10.83;;;;;;;2.68;100.00;97644.09;5054263;28;20207;-58
2021/12/26 04:05:22;;;;;;;29.07;10.40;;;;;;;2.62;100.00;97640.28;5055544;28;20215;-55
2021/12/26 04:07:50;;;;;;;19.23;10.50;;;;;;;2.64;100.00;97637.56;5054427;28;20192;-57
2021/12/26 04:10:20;;;;;;;22.57;11.23;;;;;;;2.70;100.00;97642.22;5053711;28;20216;-58
2021/12/26 04:12:49;;;;;;;21.20;11.00;;;;;;;2.73;100.00;97644.56;5054177;28;20199;-58
2021/12/26 04:15:20;;;;;;;19.60;11.27;;;;;;;2.75;100.00;97641.84;5054203;28;20195;-57
2021/12/26 04:17:51;;;;;;;17.33;10.93;;;;;;;2.79;100.00;97641.47;5054063;28;20630;-58
2021/12/26 04:20:18;;;;;;;21.10;11.30;;;;;;;2.79;100.00;97638.06;5053446;28;20199;-59
2021/12/26 04:22:45;;;;;;;17.67;10.53;;;;;;;2.75;100.00;97640.09;5053914;28;20310;-58
2021/12/26 04:25:12;;;;;;;18.93;10.80;;;;;;;2.79;100.00;97638.91;5054053;28;20195;-57
2021/12/26 04:27:39;;;;;;;21.20;10.40;;;;;;;2.80;100.00;97644.84;5053956;28;20198;-57
2021/12/26 04:30:11;;;;;;;16.50;9.80;;;;;;;2.84;100.00;97648.81;5053361;28;20578;-57
2021/12/26 04:32:38;;;;;;;17.03;10.37;;;;;;;2.80;100.00;97644.84;5053845;28;20215;-57
2021/12/26 04:35:08;;;;;;;20.43;10.83;;;;;;;2.77;100.00;97651.09;5054871;28;20192;-57
2021/12/26 04:37:35;;;;;;;19.23;11.57;;;;;;;2.77;100.00;97645.94;5053550;28;20188;-57
2021/12/26 04:40:03;;;;;;;15.57;10.10;;;;;;;2.81;100.00;97646.50;5052868;28;20692;-58
2021/12/26 04:42:40;;;;;;;18.23;10.50;;;;;;;2.84;100.00;97655.75;5053428;28;20221;-56
2021/12/26 04:45:17;;;;;;;19.23;11.53;;;;;;;2.82;100.00;97655.84;5054681;28;20676;-56
2021/12/26 04:48:07;;;;;;;67.93;13.07;;;;;;;2.72;100.00;97657.53;5044310;28;20203;-56
2021/12/26 04:50:37;;;;;;;102.73;13.87;;;;;;;2.66;100.00;97653.72;5052742;28;20221;-56
2021/12/26 04:53:08;;;;;;;44.63;11.50;;;;;;;2.55;100.00;97654.59;5053153;28;20552;-55
2021/12/26 04:55:35;;;;;;;69.30;13.53;;;;;;;2.56;100.00;97658.81;5053161;28;20250;-57
2021/12/26 04:58:02;;;;;;;48.17;11.83;;;;;;;2.50;100.00;97660.13;5053179;28;20199;-58
2021/12/26 05:00:32;;;;;;;45.87;11.73;;;;;;;2.57;100.00;97664.78;5052096;28;20231;-57
2021/12/26 05:03:02;;;;;;;25.30;10.87;;;;;;;2.44;100.00;97657.22;5054291;28;20223;-57
2021/12/26 05:05:30;;;;;;;32.53;10.97;;;;;;;2.43;100.00;97660.75;5054299;28;20219;-57
2021/12/26 05:07:58;;;;;;;92.73;13.47;;;;;;;2.41;100.00;97652.31;5054275;28;20184;-58
2021/12/26 05:10:27;;;;;;;65.30;12.33;;;;;;;2.43;100.00;97658.97;5052051;28;20306;-56
2021/12/26 05:12:54;;;;;;;39.33;15.77;;;;;;;2.38;100.00;97660.28;5053277;28;20420;-57
2021/12/26 05:15:22;;;;;;;36.60;13.73;;;;;;;2.36;100.00;97660.41;5053095;28;20618;-58
2021/12/26 05:17:52;;;;;;;25.57;13.03;;;;;;;2.47;100.00;97662.13;5052765;28;20274;-58
2021/12/26 05:20:22;;;;;;;97.30;15.83;;;;;;;2.40;100.00;97666.94;5052024;28;20753;-57
2021/12/26 05:22:51;;;;;;;22.63;13.07;;;;;;;2.49;100.00;97667.97;5052669;28;20272;-55
2021/12/26 05:25:20;;;;;;;27.87;13.17;;;;;;;2.43;100.00;97664.13;5052614;28;20191;-58
2021/12/26 05:27:48;;;;;;;138.63;16.97;;;;;;;2.49;100.00;97666.22;5052595;28;20191;-57
2021/12/26 05:30:18;;;;;;;466.97;25.43;;;;;;;2.37;100.00;97667.19;5051845;28;20219;-58
2021/12/26 05:32:46;;;;;;;40.00;14.70;;;;;;;2.44;100.00;97658.03;5052481;28;20191;-54
2021/12/26 05:35:17;;;;;;;110.43;17.33;;;;;;;2.44;100.00;97663.19;5052504;28;20218;-57
2021/12/26 05:37:45;;;;;;;67.17;16.20;;;;;;;2.48;100.00;97662.00;5052469;28;20188;-54
2021/12/26 05:40:13;;;;;;;107.00;16.20;;;;;;;2.47;100.00;97665.50;5051803;28;20561;-58
2021/12/26 05:42:42;;;;;;;61.83;16.03;;;;;;;2.44;100.00;97660.59;5052202;28;20238;-57
2021/12/26 05:45:11;;;;;;;239.60;23.20;;;;;;;2.38;100.00;97657.72;5052172;28;20215;-56
2021/12/26 05:47:51;;;;;;;32.83;15.40;;;;;;;2.47;100.00;97660.34;5052277;28;20194;-57
2021/12/26 05:50:20;;;;;;;141.07;17.47;;;;;;;2.36;100.00;97645.78;5051473;28;20741;-57
2021/12/26 05:52:47;;;;;;;27.87;15.20;;;;;;;2.42;100.00;97651.38;5053481;28;20185;-58
2021/12/26 05:55:17;;;;;;;65.40;17.53;;;;;;;2.38;100.00;97653.38;5052409;28;20241;-58
2021/12/26 05:57:48;;;;;;;37.03;17.10;;;;;;;2.38;100.00;97650.78;5052503;28;20195;-58
2021/12/26 06:00:19;;;;;;;98.60;18.27;;;;;;;2.41;100.00;97655.69;5051369;28;20187;-57
2021/12/26 06:02:46;;;;;;;34.07;16.70;;;;;;;2.43;100.00;97656.41;5053503;28;20202;-55
2021/12/26 06:05:14;;;;;;;66.30;16.83;;;;;;;2.46;100.00;97655.34;5051929;28;20184;-58
2021/12/26 06:07:41;;;;;;;36.37;15.23;;;;;;;2.53;100.00;97650.50;5051902;28;20274;-58
2021/12/26 06:10:08;;;;;;;69.40;15.93;;;;;;;2.56;100.00;97663.97;5050958;28;20187;-57
2021/12/26 06:12:36;;;;;;;62.27;15.90;;;;;;;2.55;100.00;97662.34;5051584;28;20183;-58
2021/12/26 06:15:05;;;;;;;32.90;16.07;;;;;;;2.54;100.00;97667.59;5051685;28;20302;-58
2021/12/26 06:17:35;;;;;;;38.43;15.43;;;;;;;2.55;100.00;97657.19;5051796;28;20237;-58
2021/12/26 06:20:20;;;;;;;171.97;18.00;;;;;;;2.49;100.00;97666.22;5052216;28;20298;-58
2021/12/26 06:23:06;;;;;;;44.97;16.10;;;;;;;2.53;100.00;97669.38;5052843;28;20697;-57
2021/12/26 06:26:01;;;;;;;63.60;17.30;;;;;;;2.50;100.00;97667.84;5053063;28;20192;-57
2021/12/26 06:28:40;;;;;;;41.30;16.97;;;;;;;2.57;100.00;97665.59;5051399;28;20198;-57
2021/12/26 06:31:27;;;;;;;95.27;17.83;;;;;;;2.45;100.00;97664.00;5052029;28;20217;-56
2021/12/26 06:34:12;;;;;;;213.57;26.60;;;;;;;2.44;100.00;97664.94;5052651;28;20661;-58
2021/12/26 06:36:58;;;;;;;122.20;19.80;;;;;;;2.45;100.00;97669.97;5052689;28;20202;-58
2021/12/26 06:39:43;;;;;;;307.93;24.30;;;;;;;2.38;100.00;97668.81;5052106;28;20680;-58
2021/12/26 06:42:31;;;;;;;438.17;28.40;;;;;;;2.31;100.00;97668.50;5052442;28;20217;-58
2021/12/26 06:45:23;;;;;;;30.30;17.80;;;;;;;2.29;100.00;97667.81;5052204;28;20191;-58
2021/12/26 06:48:10;;;;;;;40.63;17.13;;;;;;;2.36;100.00;97674.09;5052380;28;20202;-57
2021/12/26 06:50:39;;;;;;;166.73;19.87;;;;;;;2.31;100.00;97670.25;5050432;28;20222;-58
2021/12/26 06:53:05;;;;;;;169.03;19.23;;;;;;;2.31;100.00;97668.50;5051064;28;20262;-57
2021/12/26 06:55:32;;;;;;;288.23;22.57;;;;;;;2.27;100.00;97676.59;5052796;28;20548;-56
2021/12/26 06:57:59;;;;;;;54.30;18.40;;;;;;;2.32;100.00;97674.47;5052107;28;20269;-57
2021/12/26 07:00:26;;;;;;;51.97;19.93;;;;;;;2.37;100.00;97674.91;5051486;28;20222;-57
2021/12/26 07:02:53;;;;;;;57.17;20.40;;;;;;;2.40;100.00;97672.09;5050758;28;20215;-57
2021/12/26 07:05:22;;;;;;;89.27;20.17;;;;;;;2.43;100.00;97679.56;5050956;28;20196;-56
2021/12/26 07:08:05;;;;;;;80.03;19.33;;;;;;;2.42;100.00;97687.44;5050906;28;20187;-58
2021/12/26 07:10:33;;;;;;;86.73;18.70;;;;;;;2.40;100.00;97682.41;5049877;28;20219;-55
2021/12/26 07:13:00;;;;;;;51.55;22.75;;;;;;;2.46;100.00;97679.34;5049820;28;20455;-57
2021/12/26 07:15:34;;;;;;;39.20;18.13;;;;;;;2.49;100.00;97684.25;5050691;28;20198;-58
2021/12/26 07:18:02;;;;;;;35.47;18.60;;;;;;;2.51;100.00;97681.56;5050657;28;20719;-58
2021/12/26 07:20:35;;;;;;;54.07;19.77;;;;;;;2.51;100.00;97684.13;5049949;28;20215;-58
2021/12/26 07:23:11;;;;;;;36.67;16.97;;;;;;;2.57;100.00;97672.50;5050992;28;20208;-58
2021/12/26 07:25:40;;;;;;;52.83;17.43;;;;;;;2.56;100.00;97669.13;5050183;28;20217;-57
2021/12/26 07:28:07;;;;;;;39.30;16.43;;;;;;;2.60;100.00;97678.25;5050507;28;20191;-57
2021/12/26 07:30:52;;;;;;;29.50;15.83;;;;;;;2.68;100.00;97679.34;5051199;28;20211;-57
2021/12/26 07:33:20;;;;;;;31.30;16.30;;;;;;;2.71;100.00;97681.69;5050400;28;20183;-57
2021/12/26 07:35:51;;;;;;;29.00;16.30;;;;;;;2.71;100.00;97690.25;5050393;28;20217;-56
2021/12/26 07:38:51;;;;;;;54.30;21.17;;;;;;;2.69;100.00;97693.88;5039474;28;20195;-56
2021/12/26 07:41:19;;;;;;;79.70;23.40;;;;;;;2.69;100.00;97699.03;5049631;28;20221;-58
2021/12/26 07:43:48;;;;;;;67.87;20.50;;;;;;;2.66;100.00;97702.69;5050190;28;20294;-57
2021/12/26 07:46:32;;;;;;;146.10;21.77;;;;;;;2.63;100.00;97711.50;5051842;28;20207;-58
2021/12/26 07:49:04;;;;;;;115.47;20.93;;;;;;;2.61;100.00;97708.22;5050281;28;20260;-57
2021/12/26 07:51:51;;;;;;;308.93;26.53;;;;;;;2.53;100.00;97714.91;5050909;28;20218;-58
2021/12/26 07:54:37;;;;;;;334.43;47.73;;;;;;;2.36;100.00;97711.91;5051590;28;20194;-57
2021/12/26 07:57:26;;;;;;;203.10;31.90;;;;;;;2.36;100.00;97719.63;5040931;28;20207;-58
2021/12/26 08:00:12;;;;;;;243.60;34.70;;;;;;;2.39;100.00;97713.44;5050842;28;20320;-58
2021/12/26 08:02:55;;;;;;;102.00;24.37;;;;;;;2.44;100.00;97712.13;5051487;28;20595;-57
2021/12/26 08:05:41;;;;;;;311.07;26.50;;;;;;;2.36;100.00;97722.22;5051453;28;20204;-57
2021/12/26 08:08:36;;;;;;;99.07;20.17;;;;;;;2.46;100.00;97717.97;5050145;28;20192;-57
2021/12/26 08:11:04;;;;;;;74.97;19.17;;;;;;;2.42;100.00;97716.56;5050701;28;20305;-57
2021/12/26 08:13:31;;;;;;;54.13;18.77;;;;;;;2.48;100.00;97718.66;5049961;28;20191;-57
2021/12/26 08:15:59;;;;;;;85.70;19.60;;;;;;;2.53;100.00;97717.47;5050116;28;20193;-58
2021/12/26 08:18:25;;;;;;;51.30;19.40;;;;;;;2.56;100.00;97715.50;5051364;28;20184;-58
2021/12/26 08:20:52;;;;;;;92.93;19.90;;;;;;;2.63;100.00;97711.50;5050644;28;20694;-57
2021/12/26 08:23:19;;;;;;;49.00;19.13;;;;;;;2.70;100.00;97721.28;5051129;28;20210;-57
2021/12/26 08:25:47;;;;;;;74.13;19.07;;;;;;;2.74;100.00;97713.19;5051118;28;20189;-58
2021/12/26 08:28:15;;;;;;;47.67;18.87;;;;;;;2.76;100.00;97713.88;5051273;28;20194;-57
2021/12/26 08:30:42;;;;;;;37.57;18.77;;;;;;;2.82;100.00;97714.34;5050621;28;20298;-57
2021/12/26 08:33:09;;;;;;;54.97;19.90;;;;;;;2.75;100.00;97712.25;5051216;28;20196;-57
2021/12/26 08:35:38;;;;;;;52.43;19.40;;;;;;;2.83;100.00;97708.25;5052723;28;20188;-57
2021/12/26 08:38:05;;;;;;;56.90;21.83;;;;;;;2.77;100.00;97717.28;5054753;28;20349;-58
2021/12/26 08:40:32;;;;;;;47.27;18.23;;;;;;;2.82;100.00;97719.50;5054287;28;20685;-58
2021/12/26 08:43:00;;;;;;;57.87;18.63;;;;;;;2.84;100.00;97715.03;5055058;28;20319;-57
2021/12/26 08:45:29;;;;;;;46.03;18.10;;;;;;;2.88;100.00;97712.06;5054966;28;20658;-57
2021/12/26 08:47:57;;;;;;;45.93;17.93;;;;;;;2.88;100.00;97712.06;5054662;28;20183;-57
2021/12/26 08:50:25;;;;;;;32.93;17.90;;;;;;;2.97;100.00;97720.81;5053901;28;20277;-58
2021/12/26 08:52:52;;;;;;;36.70;18.03;;;;;;;3.05;100.00;97725.34;5054459;28;20194;-57
2021/12/26 08:55:20;;;;;;;30.97;17.33;;;;;;;3.01;100.00;97714.47;5054531;28;20275;-57
2021/12/26 08:57:46;;;;;;;30.13;15.97;;;;;;;3.03;100.00;97715.16;5054416;28;20195;-58
2021/12/26 09:00:16;;;;;;;34.53;17.87;;;;;;;3.05;100.00;97715.88;5053786;28;20212;-55
2021/12/26 09:02:44;;;;;;;36.40;18.47;;;;;;;3.15;100.00;97712.53;5054744;28;20218;-58
2021/12/26 09:05:12;;;;;;;38.73;19.50;;;;;;;3.23;100.00;97717.84;5054345;28;20184;-57
2021/12/26 09:07:40;;;;;;;42.07;19.87;;;;;;;3.18;100.00;97717.44;5054295;28;20542;-58
2021/12/26 09:10:10;;;;;;;67.23;29.97;;;;;;;3.20;100.00;97720.69;5053449;28;20270;-57
2021/12/26 09:12:37;;;;;;;71.97;26.48;;;;;;;3.23;100.00;97717.84;5053562;28;20428;-58
2021/12/26 09:15:05;;;;;;;67.03;22.53;;;;;;;3.26;100.00;97722.75;5054160;28;20184;-57
2021/12/26 09:17:33;;;;;;;41.07;22.40;;;;;;;3.17;100.00;97723.53;5054095;28;20211;-56
2021/12/26 09:20:00;;;;;;;44.30;21.70;;;;;;;3.23;100.00;97721.25;5053330;28;20187;-57
2021/12/26 09:22:27;;;;;;;139.50;22.20;;;;;;;3.21;100.00;97720.56;5053957;28;20228;-54
2021/12/26 09:24:53;;;;;;;58.17;22.13;;;;;;;3.18;100.00;97725.97;5053856;28;20216;-57
2021/12/26 09:27:21;;;;;;;148.63;24.60;;;;;;;3.15;100.00;97733.16;5053988;28;20218;-57
2021/12/26 09:29:48;;;;;;;40.53;20.17;;;;;;;3.17;100.00;97734.66;5053171;28;20653;-57
2021/12/26 09:32:15;;;;;;;87.87;22.03;;;;;;;3.16;100.00;97738.19;5053744;28;20211;-58
2021/12/26 09:34:44;;;;;;;78.13;22.60;;;;;;;3.22;100.00;97740.25;5053987;28;20179;-58
2021/12/26 09:37:12;;;;;;;72.33;21.13;;;;;;;3.32;100.00;97748.03;5053793;28;20607;-59
2021/12/26 09:39:39;;;;;;;232.30;29.77;;;;;;;3.22;100.00;97744.59;5053177;28;20677;-57
2021/12/26 09:42:07;;;;;;;42.93;22.43;;;;;;;3.33;100.00;97749.69;5053584;28;20218;-52
2021/12/26 09:44:35;;;;;;;50.07;24.03;;;;;;;3.40;100.00;97750.00;5053497;28;20207;-55
2021/12/26 09:47:05;;;;;;;42.60;22.57;;;;;;;3.49;100.00;97751.00;5052886;28;20261;-55
2021/12/26 09:49:32;;;;;;;119.30;29.33;;;;;;;3.52;100.00;97751.56;5053369;28;20192;-56
2021/12/26 09:52:00;;;;;;;105.57;24.60;;;;;;;3.60;100.00;97753.50;5053514;28;20565;-55
2021/12/26 09:54:27;;;;;;;44.10;20.50;;;;;;;3.70;100.00;97750.97;5053453;28;20183;-56
2021/12/26 09:56:53;;;;;;;45.40;21.70;;;;;;;3.65;100.00;97759.09;5053918;28;20187;-58
2021/12/26 09:59:23;;;;;;;52.83;25.43;;;;;;;3.69;100.00;97765.63;5053291;28;20203;-53
2021/12/26 10:01:52;;;;;;;48.57;21.50;;;;;;;3.72;100.00;97756.00;5052572;28;20203;-52
2021/12/26 10:04:22;;;;;;;56.30;20.03;;;;;;;3.82;100.00;97747.34;5053158;28;20247;-58
2021/12/26 10:06:51;;;;;;;34.53;18.73;;;;;;;3.66;100.00;97740.09;5053238;28;20183;-55
2021/12/26 10:09:21;;;;;;;49.63;20.90;;;;;;;3.67;100.00;97740.91;5053168;28;20191;-58
2021/12/26 10:11:49;;;;;;;60.80;20.47;;;;;;;3.71;100.00;97733.72;5052465;28;20296;-59
2021/12/26 10:14:18;;;;;;;36.40;18.87;;;;;;;3.74;100.00;97728.31;5053043;28;20183;-59
2021/12/26 10:16:46;;;;;;;40.87;18.40;;;;;;;3.77;100.00;97728.03;5053060;28;20192;-56
2021/12/26 10:19:14;;;;;;;35.23;17.60;;;;;;;3.81;100.00;97717.31;5052965;28;20284;-53
2021/12/26 10:21:43;;;;;;;51.67;21.07;;;;;;;3.86;100.00;97714.34;5052285;28;20234;-57
2021/12/26 10:24:17;;;;;;;33.00;17.63;;;;;;;3.98;100.00;97704.72;5052612;28;20401;-53
2021/12/26 10:26:48;;;;;;;41.33;20.13;;;;;;;3.93;99.52;97699.97;5052886;28;20196;-57
2021/12/26 10:29:25;;;;;;;35.10;18.83;;;;;;;4.00;100.00;97700.25;5052786;28;20202;-57
2021/12/26 10:32:07;;;;;;;38.77;19.80;;;;;;;4.08;100.00;97694.44;5052299;28;20239;-58
2021/12/26 10:34:37;;;;;;;39.57;20.23;;;;;;;4.21;100.00;97695.03;5052599;28;20187;-57
2021/12/26 10:37:08;;;;;;;38.73;20.33;;;;;;;4.34;100.00;97696.50;5051362;28;20345;-57
2021/12/26 10:39:39;;;;;;;36.77;20.73;;;;;;;4.37;98.94;97696.25;5050791;28;20197;-57
2021/12/26 10:42:10;;;;;;;44.83;21.70;;;;;;;4.40;100.00;97695.97;5051132;28;20222;-58
2021/12/26 10:44:41;;;;;;;51.67;24.67;;;;;;;4.44;99.99;97687.00;5052434;28;20209;-58
2021/12/26 10:47:12;;;;;;;42.20;22.13;;;;;;;4.49;99.00;97691.78;5052259;28;20200;-59
2021/12/26 10:49:49;;;;;;;46.27;22.60;;;;;;;4.39;97.78;97697.75;5051937;28;20187;-58
2021/12/26 10:52:22;;;;;;;43.07;21.50;;;;;;;4.38;98.14;97697.88;5052186;28;20203;-58
2021/12/26 10:54:52;;;;;;;39.13;20.77;;;;;;;4.31;96.88;97696.78;5052449;28;20187;-57
2021/12/26 10:57:24;;;;;;;41.33;20.63;;;;;;;4.12;97.66;97693.22;5052703;28;20197;-58
2021/12/26 11:00:07;;;;;;;43.53;21.87;;;;;;;4.21;98.63;97699.34;5051423;28;20683;-56
2021/12/26 11:02:35;;;;;;;50.90;23.93;;;;;;;4.12;98.36;97698.41;5052522;28;20183;-58
2021/12/26 11:05:06;;;;;;;73.53;23.87;;;;;;;4.06;99.16;97698.94;5052014;28;20207;-59
2021/12/26 11:07:51;;;;;;;49.00;24.43;;;;;;;4.14;100.00;97694.72;5052082;28;20206;-56
2021/12/26 11:10:24;;;;;;;40.87;20.87;;;;;;;4.10;100.00;97701.09;5049853;28;20329;-57
2021/12/26 11:12:55;;;;;;;43.23;21.27;;;;;;;4.07;99.83;97698.78;5051962;28;20653;-57
2021/12/26 11:15:25;;;;;;;36.70;19.70;;;;;;;4.11;98.78;97694.97;5052040;28;20184;-58
2021/12/26 11:17:55;;;;;;;34.73;18.87;;;;;;;4.05;99.93;97700.69;5051895;28;20190;-58
2021/12/26 11:20:35;;;;;;;34.13;17.73;;;;;;;4.14;99.84;97701.66;5051200;28;20209;-58
2021/12/26 11:23:09;;;;;;;34.97;18.07;;;;;;;4.12;98.98;97695.81;5051854;28;20521;-59
2021/12/26 11:25:38;;;;;;;33.73;19.23;;;;;;;4.11;98.32;97700.16;5051926;28;20211;-59
2021/12/26 11:28:07;;;;;;;39.27;19.90;;;;;;;4.11;99.12;97694.19;5052052;28;20262;-59
2021/12/26 11:30:34;;;;;;;44.40;22.23;;;;;;;4.22;99.68;97691.50;5051058;28;20728;-59
2021/12/26 11:33:02;;;;;;;71.90;35.00;;;;;;;4.32;100.00;97688.06;5051654;28;20253;-58
2021/12/26 11:35:30;;;;;;;38.23;19.57;;;;;;;4.33;100.00;97687.13;5051993;28;20175;-59